ESNO

Örnsköldsvik Airport

Örnsköldsvik, Sweden
METAR ESNO 131020Z AUTO 32002KT 9999 NCD M13/M15 Q1033
Observed Flight Rules
Dec-13 @ 10:20 UTC (31 minutes ago) Visual Flight Rules
Wind Visibility Clouds
320° at 2 knots 10,000+ meters
  • Clear skies
Temperatures Readings
Current -13°C / 9°F
Dewpoint -15°C / 5°F
Humidity 85%
Altimeter 30.5" Hg
Pressure 1033 hPa
Elevation 103
METAR ESNO 131020Z AUTO 32002KT 9999 NCD M13/M15 Q1033
Observed Flight Rules
Dec-13 @ 10:20 UTC
(31 minutes ago)
VFR
Wind Visibility
320° at 2 knots 10,000+ meters
Clouds
  • Clear skies
Temperature Dewpoint
-13°C / 9°F -15°C / 5°F
Humidity Altimeter Pressure
85% 30.5" Hg 1033 hPa